createdAt,value
2023-04-10T00:00:20.052Z,1002.79
2023-04-10T00:01:20.021Z,1002.78
2023-04-10T00:02:20.069Z,1002.79
2023-04-10T00:03:20.101Z,1002.72
2023-04-10T00:04:20.118Z,1002.75
2023-04-10T00:05:19.976Z,1002.72
2023-04-10T00:06:19.966Z,1002.78
2023-04-10T00:07:19.960Z,1002.68
2023-04-10T00:08:19.931Z,1002.75
2023-04-10T00:09:19.942Z,1002.66
2023-04-10T00:10:19.912Z,1002.73
2023-04-10T00:11:19.911Z,1002.67
2023-04-10T00:12:19.888Z,1002.70
2023-04-10T00:13:19.884Z,1002.66
2023-04-10T00:14:19.888Z,1002.65
2023-04-10T00:15:19.870Z,1002.65
2023-04-10T00:16:19.925Z,1002.67
2023-04-10T00:17:19.866Z,1002.64
2023-04-10T00:18:19.824Z,1002.60
2023-04-10T00:19:19.839Z,1002.63
2023-04-10T00:20:19.813Z,1002.63
2023-04-10T00:21:19.807Z,1002.64
2023-04-10T00:22:19.795Z,1002.63
2023-04-10T00:23:19.795Z,1002.56
2023-04-10T00:24:19.792Z,1002.54
2023-04-10T00:25:19.771Z,1002.56
2023-04-10T00:26:19.758Z,1002.57
2023-04-10T00:27:19.743Z,1002.57
2023-04-10T00:28:19.738Z,1002.55
2023-04-10T00:29:19.724Z,1002.60
2023-04-10T00:30:19.731Z,1002.57
2023-04-10T00:31:19.700Z,1002.55
2023-04-10T00:32:19.882Z,1002.58
2023-04-10T00:33:19.693Z,1002.64
2023-04-10T00:34:19.689Z,1002.59
2023-04-10T00:35:19.667Z,1002.66
2023-04-10T00:36:19.705Z,1002.62
2023-04-10T00:37:19.654Z,1002.62
2023-04-10T00:38:19.639Z,1002.67
2023-04-10T00:39:19.635Z,1002.62
2023-04-10T00:40:19.616Z,1002.62
2023-04-10T00:41:19.602Z,1002.60
2023-04-10T00:42:19.597Z,1002.57
2023-04-10T00:43:19.588Z,1002.64
2023-04-10T00:44:19.579Z,1002.63
2023-04-10T00:45:19.571Z,1002.62
2023-04-10T00:46:19.578Z,1002.65
2023-04-10T00:47:19.653Z,1002.61
2023-04-10T00:48:19.572Z,1002.60
2023-04-10T00:49:19.523Z,1002.56
2023-04-10T00:50:19.515Z,1002.59
2023-04-10T00:51:19.518Z,1002.56
2023-04-10T00:52:19.495Z,1002.60
2023-04-10T00:53:19.476Z,1002.56
2023-04-10T00:54:19.474Z,1002.56
2023-04-10T00:55:19.469Z,1002.52
2023-04-10T00:56:19.487Z,1002.54
2023-04-10T00:57:19.435Z,1002.53
2023-04-10T00:58:19.443Z,1002.57
2023-04-10T00:59:19.426Z,1002.59
2023-04-10T01:00:19.414Z,1002.56
2023-04-10T01:01:19.441Z,1002.58
2023-04-10T01:02:19.518Z,1002.56
2023-04-10T01:03:19.539Z,1002.56
2023-04-10T01:04:19.554Z,1002.53
2023-04-10T01:05:19.360Z,1002.48
2023-04-10T01:06:19.375Z,1002.51
2023-04-10T01:07:19.336Z,1002.50
2023-04-10T01:08:19.334Z,1002.45
2023-04-10T01:09:19.318Z,1002.46
2023-04-10T01:10:19.321Z,1002.39
2023-04-10T01:11:19.312Z,1002.32
2023-04-10T01:12:19.298Z,1002.39
2023-04-10T01:13:19.298Z,1002.46
2023-04-10T01:14:19.271Z,1002.43
2023-04-10T01:15:19.265Z,1002.35
2023-04-10T01:16:19.275Z,1002.39
2023-04-10T01:17:19.233Z,1002.30
2023-04-10T01:18:19.238Z,1002.31
2023-04-10T01:19:19.213Z,1002.33
2023-04-10T01:20:19.246Z,1002.25
2023-04-10T01:21:19.193Z,1002.23
2023-04-10T01:22:19.202Z,1002.24
2023-04-10T01:23:19.173Z,1002.21
2023-04-10T01:24:19.171Z,1002.20
2023-04-10T01:25:19.162Z,1002.16
2023-04-10T01:26:19.150Z,1002.19
2023-04-10T01:27:19.134Z,1002.15
2023-04-10T01:28:19.139Z,1002.15
2023-04-10T01:29:19.124Z,1002.14
2023-04-10T01:30:19.122Z,1002.14
2023-04-10T01:31:19.147Z,1002.09
2023-04-10T01:32:19.190Z,1002.13
2023-04-10T01:33:19.088Z,1002.13
2023-04-10T01:34:19.151Z,1002.08
2023-04-10T01:35:19.048Z,1002.14
2023-04-10T01:36:19.081Z,1002.09
2023-04-10T01:37:19.037Z,1002.08
2023-04-10T01:38:19.031Z,1002.06
2023-04-10T01:39:19.014Z,1002.04
2023-04-10T01:40:19.019Z,1002.04
2023-04-10T01:41:18.991Z,1002.07
2023-04-10T01:42:19.000Z,1001.99
2023-04-10T01:43:18.986Z,1002.02
2023-04-10T01:44:18.980Z,1002.00
2023-04-10T01:45:18.956Z,1002.00
2023-04-10T01:46:18.993Z,1001.96
2023-04-10T01:47:18.944Z,1001.96
2023-04-10T01:48:18.938Z,1001.98
2023-04-10T01:49:18.922Z,1001.95
2023-04-10T01:50:18.917Z,1001.93
2023-04-10T01:51:18.893Z,1001.89
2023-04-10T01:52:18.919Z,1001.90
2023-04-10T01:53:18.879Z,1001.90
2023-04-10T01:54:18.973Z,1001.95
2023-04-10T01:55:18.853Z,1001.94
2023-04-10T01:56:18.853Z,1001.94
2023-04-10T01:57:18.837Z,1001.95
2023-04-10T01:58:18.837Z,1001.93
2023-04-10T01:59:18.812Z,1001.94
2023-04-10T02:00:18.971Z,1001.92
2023-04-10T02:01:28.341Z,1001.89
2023-04-10T02:02:19.931Z,1001.89
2023-04-10T02:03:18.966Z,1001.89
2023-04-10T02:04:19.027Z,1001.90
2023-04-10T02:05:18.762Z,1001.87
2023-04-10T02:06:18.761Z,1001.94
2023-04-10T02:07:18.736Z,1001.89
2023-04-10T02:08:18.755Z,1001.88
2023-04-10T02:09:18.713Z,1001.91
2023-04-10T02:10:18.716Z,1001.89
2023-04-10T02:11:18.699Z,1001.91
2023-04-10T02:12:18.704Z,1001.91
2023-04-10T02:13:18.678Z,1001.88
2023-04-10T02:14:18.669Z,1001.95
2023-04-10T02:15:18.654Z,1001.91
2023-04-10T02:16:18.672Z,1001.93
2023-04-10T02:17:18.633Z,1001.87
2023-04-10T02:18:18.632Z,1001.92
2023-04-10T02:19:18.626Z,1001.96
2023-04-10T02:20:18.649Z,1001.95
2023-04-10T02:21:18.601Z,1002.03
2023-04-10T02:22:18.589Z,1002.04
2023-04-10T02:23:18.572Z,1002.00
2023-04-10T02:24:18.593Z,1001.99
2023-04-10T02:25:18.549Z,1001.99
2023-04-10T02:26:18.557Z,1002.03
2023-04-10T02:27:18.537Z,1002.08
2023-04-10T02:28:18.540Z,1002.00
2023-04-10T02:29:18.532Z,1002.00
2023-04-10T02:30:18.504Z,1002.03
2023-04-10T02:31:18.641Z,1002.06
2023-04-10T02:32:18.489Z,1002.04
2023-04-10T02:33:18.483Z,1002.14
2023-04-10T02:34:18.484Z,1002.10
2023-04-10T02:35:18.451Z,1002.13
2023-04-10T02:36:18.453Z,1002.10
2023-04-10T02:37:18.433Z,1002.08
2023-04-10T02:38:18.456Z,1002.08
2023-04-10T02:39:18.428Z,1002.09
2023-04-10T02:40:18.438Z,1002.06
2023-04-10T02:41:18.394Z,1002.03
2023-04-10T02:42:18.395Z,1002.04
2023-04-10T02:43:18.368Z,1002.03
2023-04-10T02:44:18.365Z,1002.02
2023-04-10T02:45:18.363Z,1002.00
2023-04-10T02:46:18.373Z,1001.96
2023-04-10T02:47:18.370Z,1001.93
2023-04-10T02:48:18.332Z,1001.93
2023-04-10T02:49:18.326Z,1001.93
2023-04-10T02:50:18.314Z,1001.94
2023-04-10T02:51:18.296Z,1001.86
2023-04-10T02:52:18.293Z,1001.90
2023-04-10T02:53:18.275Z,1001.95
2023-04-10T02:54:18.273Z,1001.95
2023-04-10T02:55:18.251Z,1002.02
2023-04-10T02:56:18.273Z,1001.94
2023-04-10T02:57:18.235Z,1002.01
2023-04-10T02:58:18.231Z,1002.07
2023-04-10T02:59:18.219Z,1002.03
2023-04-10T03:00:18.218Z,1002.03
2023-04-10T03:01:18.248Z,1002.02
2023-04-10T03:02:18.320Z,1002.01
2023-04-10T03:03:18.275Z,1001.96
2023-04-10T03:04:18.228Z,1001.99
2023-04-10T03:05:18.157Z,1001.96
2023-04-10T03:06:18.161Z,1001.97
2023-04-10T03:07:18.144Z,1001.97
2023-04-10T03:08:18.129Z,1002.01
2023-04-10T03:09:18.114Z,1001.98
2023-04-10T03:10:18.104Z,1001.99
2023-04-10T03:11:18.110Z,1001.94
2023-04-10T03:12:18.115Z,1001.95
2023-04-10T03:13:18.075Z,1001.94
2023-04-10T03:14:18.076Z,1001.90
2023-04-10T03:15:18.055Z,1001.86
2023-04-10T03:16:18.106Z,1001.90
2023-04-10T03:17:18.036Z,1001.85
2023-04-10T03:18:18.040Z,1001.81
2023-04-10T03:19:18.009Z,1001.83
2023-04-10T03:20:18.036Z,1001.83
2023-04-10T03:21:17.996Z,1001.81
2023-04-10T03:22:18.004Z,1001.80
2023-04-10T03:23:18.013Z,1001.78
2023-04-10T03:24:17.975Z,1001.79
2023-04-10T03:25:17.956Z,1001.73
2023-04-10T03:26:17.954Z,1001.76
2023-04-10T03:27:17.930Z,1001.69
2023-04-10T03:28:17.957Z,1001.73
2023-04-10T03:29:17.921Z,1001.71
2023-04-10T03:30:17.906Z,1001.68
2023-04-10T03:31:17.908Z,1001.64
2023-04-10T03:32:17.895Z,1001.62
2023-04-10T03:33:17.930Z,1001.63
2023-04-10T03:34:17.873Z,1001.61
2023-04-10T03:35:17.850Z,1001.59
2023-04-10T03:36:17.936Z,1001.59
2023-04-10T03:37:17.840Z,1001.67
2023-04-10T03:38:17.827Z,1001.62
2023-04-10T03:39:17.812Z,1001.58
2023-04-10T03:40:17.807Z,1001.58
2023-04-10T03:41:17.788Z,1001.54
2023-04-10T03:42:17.791Z,1001.52
2023-04-10T03:43:17.776Z,1001.53
2023-04-10T03:44:17.793Z,1001.55
2023-04-10T03:45:17.756Z,1001.53
2023-04-10T03:46:17.782Z,1001.50
2023-04-10T03:47:17.734Z,1001.47
2023-04-10T03:48:17.743Z,1001.49
2023-04-10T03:49:17.710Z,1001.51
2023-04-10T03:50:17.706Z,1001.44
2023-04-10T03:51:17.697Z,1001.51
2023-04-10T03:52:17.695Z,1001.48
2023-04-10T03:53:17.674Z,1001.45
2023-04-10T03:54:17.668Z,1001.47
2023-04-10T03:55:17.653Z,1001.51
2023-04-10T03:56:17.646Z,1001.47
2023-04-10T03:57:17.632Z,1001.49
2023-04-10T03:58:17.633Z,1001.49
2023-04-10T03:59:17.612Z,1001.45
2023-04-10T04:00:17.634Z,1001.50
2023-04-10T04:01:17.587Z,1001.46
2023-04-10T04:02:17.660Z,1001.46
2023-04-10T04:03:17.742Z,1001.43
2023-04-10T04:04:17.684Z,1001.42
2023-04-10T04:05:17.553Z,1001.42
2023-04-10T04:06:17.548Z,1001.46
2023-04-10T04:07:17.537Z,1001.45
2023-04-10T04:08:17.530Z,1001.47
2023-04-10T04:09:17.513Z,1001.47
2023-04-10T04:10:17.514Z,1001.46
2023-04-10T04:11:17.504Z,1001.49
2023-04-10T04:12:17.499Z,1001.59
2023-04-10T04:13:17.479Z,1001.58
2023-04-10T04:14:17.473Z,1001.61
2023-04-10T04:15:17.457Z,1001.65
2023-04-10T04:16:17.529Z,1001.62
2023-04-10T04:17:17.440Z,1001.62
2023-04-10T04:18:17.432Z,1001.66
2023-04-10T04:19:17.433Z,1001.63
2023-04-10T04:20:17.417Z,1001.62
2023-04-10T04:21:17.408Z,1001.60
2023-04-10T04:22:17.403Z,1001.66
2023-04-10T04:23:17.323Z,1001.62
2023-04-10T04:24:17.359Z,1001.60
2023-04-10T04:25:17.301Z,1001.61
2023-04-10T04:26:17.313Z,1001.64
2023-04-10T04:27:17.290Z,1001.64
2023-04-10T04:28:17.288Z,1001.63
2023-04-10T04:29:17.281Z,1001.65
2023-04-10T04:30:17.266Z,1001.67
2023-04-10T04:31:17.239Z,1001.68
2023-04-10T04:32:17.352Z,1001.66
2023-04-10T04:33:17.223Z,1001.68
2023-04-10T04:34:17.227Z,1001.64
2023-04-10T04:35:17.212Z,1001.71
2023-04-10T04:36:17.244Z,1001.71
2023-04-10T04:37:17.187Z,1001.72
2023-04-10T04:38:17.198Z,1001.74
2023-04-10T04:39:17.180Z,1001.77
2023-04-10T04:40:17.162Z,1001.75
2023-04-10T04:41:19.982Z,1001.79
2023-04-10T04:42:17.135Z,1001.69
2023-04-10T04:43:17.148Z,1001.73
2023-04-10T04:44:17.117Z,1001.71
2023-04-10T04:45:17.110Z,1001.71
2023-04-10T04:46:17.122Z,1001.74
2023-04-10T04:47:17.095Z,1001.79
2023-04-10T04:48:17.095Z,1001.77
2023-04-10T04:49:17.075Z,1001.84
2023-04-10T04:50:17.095Z,1001.81
2023-04-10T04:51:17.062Z,1001.80
2023-04-10T04:52:17.049Z,1001.81
2023-04-10T04:53:17.033Z,1001.78
2023-04-10T04:54:17.013Z,1001.78
2023-04-10T04:55:17.028Z,1001.84
2023-04-10T04:56:17.018Z,1001.86
2023-04-10T04:57:16.998Z,1001.88
2023-04-10T04:58:16.982Z,1001.85
2023-04-10T04:59:16.975Z,1001.85
2023-04-10T05:00:16.956Z,1001.86
2023-04-10T05:01:17.033Z,1001.84
2023-04-10T05:02:17.054Z,1001.90
2023-04-10T05:03:17.076Z,1001.88
2023-04-10T05:04:17.036Z,1001.87
2023-04-10T05:05:16.917Z,1001.85
2023-04-10T05:06:16.896Z,1001.83
2023-04-10T05:07:16.900Z,1001.85
2023-04-10T05:08:16.894Z,1001.86
2023-04-10T05:09:16.884Z,1001.86
2023-04-10T05:10:16.858Z,1001.78
2023-04-10T05:11:16.893Z,1001.79
2023-04-10T05:12:16.840Z,1001.78
2023-04-10T05:13:16.845Z,1001.79
2023-04-10T05:14:16.813Z,1001.80
2023-04-10T05:15:16.813Z,1001.79
2023-04-10T05:16:16.910Z,1001.81
2023-04-10T05:17:16.789Z,1001.83
2023-04-10T05:18:16.867Z,1001.75
2023-04-10T05:19:16.769Z,1001.78
2023-04-10T05:20:16.778Z,1001.81
2023-04-10T05:21:16.756Z,1001.75
2023-04-10T05:22:18.558Z,1001.77
2023-04-10T05:23:16.750Z,1001.80
2023-04-10T05:24:16.714Z,1001.79
2023-04-10T05:25:16.718Z,1001.77
2023-04-10T05:26:16.693Z,1001.76
2023-04-10T05:27:16.699Z,1001.79
2023-04-10T05:28:16.684Z,1001.79
2023-04-10T05:29:16.683Z,1001.78
2023-04-10T05:30:16.675Z,1001.81
2023-04-10T05:31:16.749Z,1001.80
2023-04-10T05:32:16.662Z,1001.80
2023-04-10T05:33:16.640Z,1001.78
2023-04-10T05:34:16.623Z,1001.74
2023-04-10T05:35:16.617Z,1001.76
2023-04-10T05:36:16.660Z,1001.75
2023-04-10T05:37:16.594Z,1001.77
2023-04-10T05:38:16.590Z,1001.77
2023-04-10T05:39:16.579Z,1001.71
2023-04-10T05:40:16.564Z,1001.79
2023-04-10T05:41:16.579Z,1001.80
2023-04-10T05:42:16.535Z,1001.81
2023-04-10T05:43:16.540Z,1001.81
2023-04-10T05:44:16.526Z,1001.83
2023-04-10T05:45:16.521Z,1001.86
2023-04-10T05:46:16.553Z,1001.89
2023-04-10T05:47:16.500Z,1001.93
2023-04-10T05:48:16.482Z,1001.92
2023-04-10T05:49:16.479Z,1001.91
2023-04-10T05:50:16.471Z,1001.92
2023-04-10T05:51:16.466Z,1001.90
2023-04-10T05:52:16.464Z,1001.88
2023-04-10T05:53:16.452Z,1001.89
2023-04-10T05:54:16.421Z,1001.84
2023-04-10T05:55:16.421Z,1001.83
2023-04-10T05:56:16.391Z,1001.85
2023-04-10T05:57:16.395Z,1001.83
2023-04-10T05:58:16.384Z,1001.88
2023-04-10T05:59:16.375Z,1001.87
2023-04-10T06:00:16.358Z,1001.84
2023-04-10T06:01:16.354Z,1001.80
2023-04-10T06:02:16.387Z,1001.79
2023-04-10T06:03:16.429Z,1001.86
2023-04-10T06:04:16.443Z,1001.82
2023-04-10T06:05:16.358Z,1001.82
2023-04-10T06:06:16.298Z,1001.80
2023-04-10T06:07:16.304Z,1001.81
2023-04-10T06:08:16.301Z,1001.75
2023-04-10T06:09:16.286Z,1001.76
2023-04-10T06:10:16.260Z,1001.67
2023-04-10T06:11:16.255Z,1001.71
2023-04-10T06:12:16.235Z,1001.73
2023-04-10T06:13:16.248Z,1001.69
2023-04-10T06:14:16.219Z,1001.70
2023-04-10T06:15:16.222Z,1001.72
2023-04-10T06:16:16.222Z,1001.65
2023-04-10T06:17:16.191Z,1001.71
2023-04-10T06:18:16.279Z,1001.76
2023-04-10T06:19:16.168Z,1001.74
2023-04-10T06:20:16.166Z,1001.73
2023-04-10T06:21:16.160Z,1001.70
2023-04-10T06:22:16.146Z,1001.73
2023-04-10T06:23:16.163Z,1001.75
2023-04-10T06:24:16.144Z,1001.81
2023-04-10T06:25:16.116Z,1001.76
2023-04-10T06:26:16.113Z,1001.80
2023-04-10T06:27:16.088Z,1001.77
2023-04-10T06:28:16.085Z,1001.80
2023-04-10T06:29:16.103Z,1001.74
2023-04-10T06:30:16.063Z,1001.75
2023-04-10T06:31:16.086Z,1001.71
2023-04-10T06:32:16.042Z,1001.61
2023-04-10T06:33:16.039Z,1001.65
2023-04-10T06:34:16.008Z,1001.66
2023-04-10T06:35:16.033Z,1001.65
2023-04-10T06:36:16.019Z,1001.58
2023-04-10T06:37:16.204Z,1001.59
2023-04-10T06:38:15.972Z,1001.57
2023-04-10T06:39:15.971Z,1001.58
2023-04-10T06:40:15.974Z,1001.54
2023-04-10T06:41:15.964Z,1001.54
2023-04-10T06:42:15.931Z,1001.52
2023-04-10T06:43:15.933Z,1001.53
2023-04-10T06:44:15.914Z,1001.52
2023-04-10T06:45:15.903Z,1001.51
2023-04-10T06:46:15.990Z,1001.51
2023-04-10T06:47:15.880Z,1001.49
2023-04-10T06:48:15.882Z,1001.50
2023-04-10T06:49:15.870Z,1001.48
2023-04-10T06:50:16.004Z,1001.48
2023-04-10T06:51:15.849Z,1001.49
2023-04-10T06:52:15.826Z,1001.50
2023-04-10T06:53:15.925Z,1001.48
2023-04-10T06:54:15.806Z,1001.54
2023-04-10T06:55:15.829Z,1001.56
2023-04-10T06:56:15.815Z,1001.57
2023-04-10T06:57:15.788Z,1001.54
2023-04-10T06:58:15.880Z,1001.48
2023-04-10T06:59:15.770Z,1001.48
2023-04-10T07:00:15.752Z,1001.47
2023-04-10T07:01:15.775Z,1001.46
2023-04-10T07:02:15.750Z,1001.42
2023-04-10T07:03:15.826Z,1001.40
2023-04-10T07:04:15.807Z,1001.40
2023-04-10T07:05:15.695Z,1001.35
2023-04-10T07:06:15.683Z,1001.40
2023-04-10T07:07:15.675Z,1001.41
2023-04-10T07:08:15.662Z,1001.43
2023-04-10T07:09:15.655Z,1001.43
2023-04-10T07:10:15.631Z,1001.42
2023-04-10T07:11:15.641Z,1001.47
2023-04-10T07:12:15.647Z,1001.42
2023-04-10T07:13:15.614Z,1001.49
2023-04-10T07:14:15.595Z,1001.44
2023-04-10T07:15:15.597Z,1001.46
2023-04-10T07:16:15.629Z,1001.44
2023-04-10T07:17:15.590Z,1001.46
2023-04-10T07:18:15.568Z,1001.48
2023-04-10T07:19:15.571Z,1001.47
2023-04-10T07:20:15.533Z,1001.44
2023-04-10T07:21:15.532Z,1001.47
2023-04-10T07:22:15.514Z,1001.47
2023-04-10T07:23:15.520Z,1001.44
2023-04-10T07:24:15.493Z,1001.41
2023-04-10T07:25:15.496Z,1001.42
2023-04-10T07:26:15.475Z,1001.43
2023-04-10T07:27:15.465Z,1001.43
2023-04-10T07:28:15.474Z,1001.42
2023-04-10T07:29:15.460Z,1001.43
2023-04-10T07:30:15.535Z,1001.44
2023-04-10T07:31:15.454Z,1001.47
2023-04-10T07:32:15.479Z,1001.42
2023-04-10T07:33:15.572Z,1001.51
2023-04-10T07:34:15.389Z,1001.52
2023-04-10T07:35:15.390Z,1001.54
2023-04-10T07:36:15.391Z,1001.56
2023-04-10T07:37:15.363Z,1001.54
2023-04-10T07:38:15.361Z,1001.54
2023-04-10T07:39:15.346Z,1001.50
2023-04-10T07:40:15.327Z,1001.51
2023-04-10T07:41:15.338Z,1001.53
2023-04-10T07:42:15.324Z,1001.48
2023-04-10T07:43:15.330Z,1001.46
2023-04-10T07:44:15.309Z,1001.42
2023-04-10T07:45:15.313Z,1001.45
2023-04-10T07:46:15.347Z,1001.49
2023-04-10T07:47:15.258Z,1001.37
2023-04-10T07:48:15.347Z,1001.41
2023-04-10T07:49:15.240Z,1001.41
2023-04-10T07:50:15.217Z,1001.33
2023-04-10T07:51:15.219Z,1001.32
2023-04-10T07:52:15.201Z,1001.38
2023-04-10T07:53:15.304Z,1001.35
2023-04-10T07:54:15.176Z,1001.33
2023-04-10T07:55:15.178Z,1001.32
2023-04-10T07:56:15.164Z,1001.30
2023-04-10T07:57:15.156Z,1001.31
2023-04-10T07:58:15.132Z,1001.33
2023-04-10T07:59:15.134Z,1001.30
2023-04-10T08:00:15.156Z,1001.31
2023-04-10T08:01:15.130Z,1001.36
2023-04-10T08:02:15.221Z,1001.32
2023-04-10T08:03:15.393Z,1001.28
2023-04-10T08:04:15.324Z,1001.27
2023-04-10T08:05:15.118Z,1001.30
2023-04-10T08:06:15.050Z,1001.24
2023-04-10T08:07:15.049Z,1001.25
2023-04-10T08:08:15.026Z,1001.21
2023-04-10T08:09:15.026Z,1001.22
2023-04-10T08:10:15.005Z,1001.24
2023-04-10T08:11:15.004Z,1001.24
2023-04-10T08:12:14.995Z,1001.20
2023-04-10T08:13:15.080Z,1001.23
2023-04-10T08:14:18.287Z,1001.19
2023-04-10T08:15:14.972Z,1001.20
2023-04-10T08:16:15.050Z,1001.15
2023-04-10T08:17:15.193Z,1001.13
2023-04-10T08:18:14.921Z,1001.12
2023-04-10T08:19:14.940Z,1001.12
2023-04-10T08:20:14.919Z,1001.13
2023-04-10T08:21:14.897Z,1001.16
2023-04-10T08:22:14.883Z,1001.12
2023-04-10T08:24:15.902Z,1001.15
2023-04-10T08:25:14.860Z,1001.16
2023-04-10T08:26:14.854Z,1001.10
2023-04-10T08:27:14.835Z,1001.06
2023-04-10T08:28:14.841Z,1001.09
2023-04-10T08:29:14.816Z,1001.03
2023-04-10T08:30:14.811Z,1001.01
2023-04-10T08:31:14.851Z,1001.05
2023-04-10T08:32:14.806Z,1001.01
2023-04-10T08:33:14.768Z,1001.01
2023-04-10T08:34:14.753Z,1001.04
2023-04-10T08:35:14.756Z,1001.02
2023-04-10T08:36:14.775Z,1001.00
2023-04-10T08:37:14.736Z,1000.96
2023-04-10T08:38:14.918Z,1000.96
2023-04-10T08:39:14.708Z,1000.93
2023-04-10T08:40:14.702Z,1000.90
2023-04-10T08:41:14.690Z,1000.89
2023-04-10T08:42:14.673Z,1000.85
2023-04-10T08:43:14.673Z,1000.84
2023-04-10T08:44:14.659Z,1000.93
2023-04-10T08:45:14.650Z,1000.88
2023-04-10T08:46:15.177Z,1000.83
2023-04-10T08:47:14.625Z,1000.81
2023-04-10T08:48:14.634Z,1000.77
2023-04-10T08:49:14.605Z,1000.74
2023-04-10T08:50:14.605Z,1000.72
2023-04-10T08:51:19.397Z,1000.78
2023-04-10T08:52:14.568Z,1000.75
2023-04-10T08:53:14.587Z,1000.70
2023-04-10T08:54:14.557Z,1000.75
2023-04-10T08:55:14.532Z,1000.74
2023-04-10T08:56:14.529Z,1000.69
2023-04-10T08:57:14.514Z,1000.67
2023-04-10T08:58:14.513Z,1000.61
2023-04-10T08:59:14.493Z,1000.56
2023-04-10T09:00:23.060Z,1000.62
2023-04-10T09:01:15.562Z,1000.65
2023-04-10T09:02:14.510Z,1000.65
2023-04-10T09:03:14.718Z,1000.67
2023-04-10T09:04:14.521Z,1000.60
2023-04-10T09:05:14.433Z,1000.56
2023-04-10T09:06:14.432Z,1000.58
2023-04-10T09:07:14.409Z,1000.53
2023-04-10T09:08:14.406Z,1000.50
2023-04-10T09:09:14.392Z,1000.49
2023-04-10T09:10:14.388Z,1000.46
2023-04-10T09:11:14.373Z,1000.47
2023-04-10T09:12:14.467Z,1000.41
2023-04-10T09:13:14.364Z,1000.48
2023-04-10T09:14:14.343Z,1000.44
2023-04-10T09:15:14.324Z,1000.44
2023-04-10T09:16:14.357Z,1000.48
2023-04-10T09:17:14.306Z,1000.45
2023-04-10T09:18:14.305Z,1000.45
2023-04-10T09:19:14.279Z,1000.48
2023-04-10T09:20:14.319Z,1000.43
2023-04-10T09:21:14.267Z,1000.46
2023-04-10T09:22:14.363Z,1000.44
2023-04-10T09:23:14.251Z,1000.42
2023-04-10T09:24:14.233Z,1000.36
2023-04-10T09:25:14.217Z,1000.36
2023-04-10T09:26:14.221Z,1000.34
2023-04-10T09:27:14.202Z,1000.29
2023-04-10T09:28:14.192Z,1000.24
2023-04-10T09:29:14.178Z,1000.28
2023-04-10T09:30:14.174Z,1000.26
2023-04-10T09:31:14.179Z,1000.27
2023-04-10T09:32:14.154Z,1000.28
2023-04-10T09:33:14.133Z,1000.30
2023-04-10T09:34:14.152Z,1000.28
2023-04-10T09:35:14.146Z,1000.31
2023-04-10T09:36:14.185Z,1000.35
2023-04-10T09:37:14.099Z,1000.35
2023-04-10T09:38:14.095Z,1000.36
2023-04-10T09:39:14.093Z,1000.38
2023-04-10T09:40:14.073Z,1000.41
2023-04-10T09:41:14.053Z,1000.38
2023-04-10T09:42:14.053Z,1000.37
2023-04-10T09:43:14.034Z,1000.35
2023-04-10T09:44:14.036Z,1000.33
2023-04-10T09:45:14.009Z,1000.30
2023-04-10T09:46:14.047Z,1000.27
2023-04-10T09:47:13.989Z,1000.28
2023-04-10T09:48:13.990Z,1000.25
2023-04-10T09:49:13.975Z,1000.22
2023-04-10T09:50:13.968Z,1000.20
2023-04-10T09:51:13.949Z,1000.19
2023-04-10T09:52:13.976Z,1000.18
2023-04-10T09:53:13.930Z,1000.16
2023-04-10T09:54:13.943Z,1000.18
2023-04-10T09:55:13.906Z,1000.27
2023-04-10T09:56:13.903Z,1000.23
2023-04-10T09:57:13.892Z,1000.27
2023-04-10T09:58:13.890Z,1000.25
2023-04-10T09:59:13.868Z,1000.28
2023-04-10T10:00:13.861Z,1000.21
2023-04-10T10:01:13.853Z,1000.17
2023-04-10T10:02:13.899Z,1000.22
2023-04-10T10:03:14.115Z,1000.12
2023-04-10T10:04:13.838Z,1000.15
2023-04-10T10:05:13.929Z,1000.14
2023-04-10T10:06:13.802Z,1000.07
2023-04-10T10:07:13.784Z,1000.12
2023-04-10T10:08:13.816Z,1000.12
2023-04-10T10:09:13.771Z,1000.13
2023-04-10T10:10:13.770Z,1000.10
2023-04-10T10:11:13.739Z,1000.09
2023-04-10T10:12:13.735Z,1000.10
2023-04-10T10:13:13.721Z,1000.07
2023-04-10T10:14:13.723Z,1000.01
2023-04-10T10:15:13.699Z,1000.03
2023-04-10T10:16:13.699Z,1000.05
2023-04-10T10:17:13.677Z,1000.05
2023-04-10T10:18:13.683Z,1000.05
2023-04-10T10:19:13.666Z,1000.02
2023-04-10T10:20:13.662Z,999.99
2023-04-10T10:21:13.663Z,1000.00
2023-04-10T10:22:13.653Z,999.95
2023-04-10T10:23:13.621Z,999.95
2023-04-10T10:24:13.689Z,999.94
2023-04-10T10:25:13.629Z,1000.00
2023-04-10T10:26:13.607Z,1000.01
2023-04-10T10:27:13.586Z,1000.01
2023-04-10T10:28:13.588Z,1000.02
2023-04-10T10:29:13.571Z,1000.01
2023-04-10T10:30:28.144Z,999.93
2023-04-10T10:31:14.630Z,999.91
2023-04-10T10:32:13.550Z,999.85
2023-04-10T10:33:13.523Z,999.79
2023-04-10T10:34:13.520Z,999.83
2023-04-10T10:35:13.500Z,999.86
2023-04-10T10:36:13.577Z,999.83
2023-04-10T10:37:13.481Z,999.85
2023-04-10T10:38:13.488Z,999.81
2023-04-10T10:39:13.480Z,999.80
2023-04-10T10:40:13.489Z,999.75
2023-04-10T10:41:13.453Z,999.76
2023-04-10T10:42:13.444Z,999.68
2023-04-10T10:43:13.427Z,999.73
2023-04-10T10:44:13.422Z,999.70
2023-04-10T10:45:13.407Z,999.71
2023-04-10T10:46:13.536Z,999.67
2023-04-10T10:47:13.399Z,999.69
2023-04-10T10:48:13.386Z,999.67
2023-04-10T10:49:13.368Z,999.65
2023-04-10T10:50:13.368Z,999.65
2023-04-10T10:51:13.350Z,999.65
2023-04-10T10:52:13.350Z,999.61
2023-04-10T10:53:13.331Z,999.64
2023-04-10T10:54:13.325Z,999.59
2023-04-10T10:55:13.309Z,999.51
2023-04-10T10:56:13.330Z,999.47
2023-04-10T10:57:13.298Z,999.33
2023-04-10T10:58:13.298Z,999.36
2023-04-10T10:59:13.281Z,999.32
2023-04-10T11:00:13.283Z,999.40
2023-04-10T11:01:13.274Z,999.36
2023-04-10T11:02:13.326Z,999.36
2023-04-10T11:03:13.432Z,999.34
2023-04-10T11:04:13.255Z,999.33
2023-04-10T11:05:13.214Z,999.30
2023-04-10T11:06:13.211Z,999.24
2023-04-10T11:07:13.208Z,999.29
2023-04-10T11:08:13.201Z,999.22
2023-04-10T11:09:13.173Z,999.20
2023-04-10T11:10:13.173Z,999.24
2023-04-10T11:11:13.153Z,999.21
2023-04-10T11:12:13.177Z,999.16
2023-04-10T11:13:13.140Z,999.19
2023-04-10T11:14:13.133Z,999.18
2023-04-10T11:15:13.123Z,999.15
2023-04-10T11:16:13.155Z,999.17
2023-04-10T11:17:13.114Z,999.09
2023-04-10T11:18:13.099Z,999.12
2023-04-10T11:19:15.571Z,999.04
2023-04-10T11:20:13.078Z,999.13
2023-04-10T11:21:13.060Z,999.15
2023-04-10T11:22:13.063Z,999.16
2023-04-10T11:23:13.039Z,999.19
2023-04-10T11:24:13.037Z,999.14
2023-04-10T11:25:13.027Z,999.14
2023-04-10T11:26:13.016Z,999.08
2023-04-10T11:27:13.000Z,999.06
2023-04-10T11:28:13.106Z,999.12
2023-04-10T11:29:12.978Z,999.13
2023-04-10T11:30:12.986Z,999.07
2023-04-10T11:31:12.967Z,999.17
2023-04-10T11:32:13.032Z,999.12
2023-04-10T11:33:12.949Z,999.14
2023-04-10T11:34:12.937Z,999.11
2023-04-10T11:35:12.917Z,999.11
2023-04-10T11:36:12.913Z,999.09
2023-04-10T11:37:12.904Z,999.11
2023-04-10T11:38:12.903Z,999.07
2023-04-10T11:39:12.893Z,999.11
2023-04-10T11:40:12.885Z,999.09
2023-04-10T11:41:12.860Z,999.07
2023-04-10T11:42:12.862Z,999.01
2023-04-10T11:43:12.842Z,998.98
2023-04-10T11:44:12.865Z,998.97
2023-04-10T11:45:12.826Z,998.95
2023-04-10T11:46:12.890Z,998.91
2023-04-10T11:47:12.825Z,998.94
2023-04-10T11:48:12.802Z,998.87
2023-04-10T11:49:12.782Z,998.85
2023-04-10T11:50:12.772Z,998.80
2023-04-10T11:51:12.782Z,998.81
2023-04-10T11:52:12.771Z,998.88
2023-04-10T11:53:12.736Z,998.80
2023-04-10T11:54:12.746Z,998.77
2023-04-10T11:55:12.729Z,998.76
2023-04-10T11:56:12.718Z,998.71
2023-04-10T11:57:12.725Z,998.81
2023-04-10T11:58:12.707Z,998.76
2023-04-10T11:59:12.691Z,998.71
2023-04-10T12:00:12.805Z,998.72
2023-04-10T12:01:12.673Z,998.68
2023-04-10T12:02:12.779Z,998.71
2023-04-10T12:03:12.746Z,998.68
2023-04-10T12:04:12.789Z,998.72
2023-04-10T12:05:12.729Z,998.72
2023-04-10T12:06:12.635Z,998.80
2023-04-10T12:07:12.616Z,998.73
2023-04-10T12:08:12.617Z,998.68
2023-04-10T12:09:12.583Z,998.70